createdAt,value
2018-09-08T00:02:26.122Z,11.10
2018-09-08T00:04:54.520Z,11.10
2018-09-08T00:07:28.280Z,11.10
2018-09-08T00:09:56.675Z,11.00
2018-09-08T00:12:25.007Z,11.00
2018-09-08T00:14:52.600Z,11.00
2018-09-08T00:17:26.431Z,10.90
2018-09-08T00:20:00.083Z,10.90
2018-09-08T00:22:33.711Z,10.90
2018-09-08T00:25:07.316Z,10.90
2018-09-08T00:27:41.631Z,10.90
2018-09-08T00:30:12.604Z,10.80
2018-09-08T00:32:40.967Z,10.80
2018-09-08T00:35:09.316Z,10.80
2018-09-08T00:37:37.647Z,10.80
2018-09-08T00:40:06.072Z,10.80
2018-09-08T00:42:34.395Z,10.80
2018-09-08T00:45:02.755Z,10.90
2018-09-08T00:47:31.092Z,10.80
2018-09-08T00:49:59.456Z,10.80
2018-09-08T00:52:27.776Z,10.80
2018-09-08T00:54:56.124Z,10.90
2018-09-08T00:57:24.441Z,10.90
2018-09-08T00:59:52.793Z,10.90
2018-09-08T01:02:21.120Z,10.90
2018-09-08T01:04:49.469Z,10.90
2018-09-08T01:07:23.059Z,11.00
2018-09-08T01:09:51.420Z,11.00
2018-09-08T01:12:19.744Z,11.00
2018-09-08T01:14:48.110Z,11.00
2018-09-08T01:17:16.478Z,11.00
2018-09-08T01:19:44.827Z,11.00
2018-09-08T01:22:13.185Z,11.00
2018-09-08T01:24:41.583Z,10.90
2018-09-08T01:27:09.908Z,10.90
2018-09-08T01:29:38.260Z,10.90
2018-09-08T01:32:06.735Z,10.90
2018-09-08T01:34:35.095Z,10.90
2018-09-08T01:37:03.466Z,10.90
2018-09-08T01:39:32.040Z,10.90
2018-09-08T01:42:00.392Z,10.90
2018-09-08T01:44:28.775Z,10.90
2018-09-08T01:46:57.108Z,10.90
2018-09-08T01:49:25.473Z,10.90
2018-09-08T01:51:53.797Z,10.90
2018-09-08T01:54:22.112Z,10.90
2018-09-08T01:56:50.439Z,10.90
2018-09-08T01:59:18.806Z,10.90
2018-09-08T02:01:47.159Z,10.90
2018-09-08T02:04:15.488Z,10.90
2018-09-08T02:06:43.819Z,10.90
2018-09-08T02:09:12.124Z,10.80
2018-09-08T02:11:40.464Z,10.80
2018-09-08T02:14:08.775Z,10.80
2018-09-08T02:16:37.108Z,10.90
2018-09-08T02:19:05.428Z,10.80
2018-09-08T02:21:33.824Z,10.80
2018-09-08T02:24:02.170Z,10.80
2018-09-08T02:26:30.523Z,10.80
2018-09-08T02:28:58.861Z,10.80
2018-09-08T02:31:27.215Z,10.80
2018-09-08T02:33:55.557Z,10.80
2018-09-08T02:36:23.916Z,10.80
2018-09-08T02:38:52.272Z,10.80
2018-09-08T02:41:20.612Z,10.80
2018-09-08T02:43:48.931Z,10.80
2018-09-08T02:46:17.295Z,10.70
2018-09-08T02:48:45.621Z,10.70
2018-09-08T02:51:12.912Z,10.70
2018-09-08T02:53:40.194Z,10.70
2018-09-08T02:56:07.488Z,10.70
2018-09-08T02:58:34.768Z,10.70
2018-09-08T03:01:02.075Z,10.70
2018-09-08T03:03:29.353Z,10.70
2018-09-08T03:05:56.648Z,10.70
2018-09-08T03:08:23.919Z,10.70
2018-09-08T03:10:51.213Z,10.60
2018-09-08T03:13:18.589Z,10.60
2018-09-08T03:15:45.888Z,10.60
2018-09-08T03:18:13.164Z,10.50
2018-09-08T03:20:40.443Z,10.50
2018-09-08T03:23:07.739Z,10.50
2018-09-08T03:25:35.020Z,10.50
2018-09-08T03:28:02.312Z,10.50
2018-09-08T03:30:29.591Z,10.50
2018-09-08T03:32:56.892Z,10.50
2018-09-08T03:35:24.173Z,10.50
2018-09-08T03:37:51.469Z,10.50
2018-09-08T03:40:18.741Z,10.40
2018-09-08T03:42:46.041Z,10.40
2018-09-08T03:45:13.324Z,10.40
2018-09-08T03:47:40.627Z,10.40
2018-09-08T03:50:07.907Z,10.30
2018-09-08T03:52:35.208Z,10.30
2018-09-08T03:55:02.484Z,10.30
2018-09-08T03:57:29.775Z,10.30
2018-09-08T03:59:57.056Z,10.20
2018-09-08T04:02:24.352Z,10.30
2018-09-08T04:04:52.896Z,10.30
2018-09-08T04:07:21.231Z,10.20
2018-09-08T04:09:49.564Z,10.30
2018-09-08T04:12:17.900Z,10.20
2018-09-08T04:14:46.216Z,10.20
2018-09-08T04:17:14.552Z,10.20
2018-09-08T04:19:42.864Z,10.20
2018-09-08T04:22:11.204Z,10.20
2018-09-08T04:24:39.540Z,10.20
2018-09-08T04:27:07.891Z,10.20
2018-09-08T04:29:36.305Z,10.20
2018-09-08T04:32:04.563Z,10.20
2018-09-08T04:34:32.901Z,10.10
2018-09-08T04:37:01.244Z,10.10
2018-09-08T04:39:29.593Z,10.10
2018-09-08T04:41:57.945Z,10.10
2018-09-08T04:44:26.264Z,10.10
2018-09-08T04:46:54.603Z,10.10
2018-09-08T04:49:22.943Z,10.10
2018-09-08T04:51:51.535Z,10.10
2018-09-08T04:54:19.860Z,10.00
2018-09-08T04:56:48.192Z,10.00
2018-09-08T04:59:16.516Z,10.00
2018-09-08T05:01:44.831Z,9.90
2018-09-08T05:04:13.266Z,9.90
2018-09-08T05:06:41.651Z,9.80
2018-09-08T05:09:11.490Z,9.80
2018-09-08T05:11:39.785Z,9.70
2018-09-08T05:14:08.210Z,9.60
2018-09-08T05:16:36.600Z,9.60
2018-09-08T05:19:05.328Z,9.60
2018-09-08T05:21:33.696Z,9.60
2018-09-08T05:24:02.105Z,9.60
2018-09-08T05:26:30.456Z,9.50
2018-09-08T05:28:58.917Z,9.60
2018-09-08T05:31:27.263Z,9.60
2018-09-08T05:33:55.643Z,9.60
2018-09-08T05:36:23.986Z,9.60
2018-09-08T05:38:52.379Z,9.60
2018-09-08T05:41:20.757Z,9.60
2018-09-08T05:43:49.138Z,9.60
2018-09-08T05:46:17.533Z,9.70
2018-09-08T05:48:45.956Z,9.70
2018-09-08T05:51:14.402Z,9.70
2018-09-08T05:53:42.732Z,9.70
2018-09-08T05:56:11.458Z,9.70
2018-09-08T05:58:39.803Z,9.80
2018-09-08T06:01:08.127Z,9.80
2018-09-08T06:03:36.492Z,9.80
2018-09-08T06:06:04.982Z,9.90
2018-09-08T06:08:33.327Z,9.90
2018-09-08T06:11:01.708Z,10.00
2018-09-08T06:13:30.048Z,10.00
2018-09-08T06:15:58.375Z,10.10
2018-09-08T06:18:26.720Z,10.10
2018-09-08T06:20:55.028Z,10.20
2018-09-08T06:23:23.364Z,10.20
2018-09-08T06:25:51.679Z,10.30
2018-09-08T06:28:20.098Z,10.30
2018-09-08T06:30:48.443Z,10.40
2018-09-08T06:33:16.791Z,10.50
2018-09-08T06:35:45.117Z,10.60
2018-09-08T06:38:13.451Z,10.70
2018-09-08T06:40:41.784Z,10.80
2018-09-08T06:43:10.134Z,10.80
2018-09-08T06:45:38.480Z,11.00
2018-09-08T06:48:06.833Z,11.00
2018-09-08T06:50:35.312Z,11.10
2018-09-08T06:53:03.623Z,11.10
2018-09-08T06:55:31.948Z,11.20
2018-09-08T06:58:00.316Z,11.30
2018-09-08T07:00:28.654Z,11.40
2018-09-08T07:02:57.008Z,11.50
2018-09-08T07:05:25.371Z,11.50
2018-09-08T07:07:53.712Z,11.70
2018-09-08T07:10:22.209Z,11.80
2018-09-08T07:12:50.536Z,12.00
2018-09-08T07:15:18.932Z,12.10
2018-09-08T07:17:47.227Z,12.20
2018-09-08T07:20:15.593Z,12.30
2018-09-08T07:22:43.924Z,12.40
2018-09-08T07:25:12.286Z,12.50
2018-09-08T07:27:40.767Z,12.60
2018-09-08T07:30:09.159Z,12.70
2018-09-08T07:32:37.496Z,12.90
2018-09-08T07:35:05.904Z,13.00
2018-09-08T07:37:34.246Z,13.20
2018-09-08T07:40:02.614Z,13.40
2018-09-08T07:42:30.945Z,13.50
2018-09-08T07:44:59.396Z,13.80
2018-09-08T07:47:27.760Z,13.90
2018-09-08T07:49:56.113Z,14.10
2018-09-08T07:52:24.478Z,14.20
2018-09-08T07:54:52.839Z,14.40
2018-09-08T07:57:21.185Z,14.50
2018-09-08T07:59:49.574Z,14.70
2018-09-08T08:02:17.988Z,14.90
2018-09-08T08:04:46.327Z,14.90
2018-09-08T08:07:15.704Z,15.00
2018-09-08T08:09:45.341Z,15.10
2018-09-08T08:12:14.006Z,15.30
2018-09-08T08:14:42.373Z,15.40
2018-09-08T08:17:10.708Z,15.40
2018-09-08T08:19:39.076Z,15.50
2018-09-08T08:22:07.415Z,15.50
2018-09-08T08:24:35.774Z,15.60
2018-09-08T08:27:04.143Z,15.70
2018-09-08T08:29:32.524Z,15.80
2018-09-08T08:32:00.872Z,15.80
2018-09-08T08:34:29.216Z,15.90
2018-09-08T08:36:57.563Z,15.90
2018-09-08T08:39:25.967Z,15.90
2018-09-08T08:41:54.327Z,16.00
2018-09-08T08:44:22.673Z,16.00
2018-09-08T08:46:51.047Z,16.10
2018-09-08T08:49:19.382Z,16.10
2018-09-08T08:51:59.203Z,16.10
2018-09-08T08:54:32.697Z,16.10
2018-09-08T08:57:01.026Z,16.10
2018-09-08T08:59:29.340Z,16.20
2018-09-08T09:01:57.672Z,16.30
2018-09-08T09:04:26.004Z,16.40
2018-09-08T09:06:54.531Z,16.70
2018-09-08T09:09:22.772Z,16.90
2018-09-08T09:11:51.646Z,16.90
2018-09-08T09:14:19.472Z,16.80
2018-09-08T09:16:47.820Z,16.80
2018-09-08T09:21:44.427Z,16.90
2018-09-08T09:24:58.294Z,16.90
2018-09-08T09:27:26.959Z,17.20
2018-09-08T09:29:55.524Z,17.40
2018-09-08T09:32:23.892Z,17.50
2018-09-08T09:34:52.242Z,17.50
2018-09-08T09:37:20.646Z,17.60
2018-09-08T09:39:49.352Z,17.50
2018-09-08T09:42:17.689Z,17.50
2018-09-08T09:44:46.010Z,17.50
2018-09-08T09:47:14.367Z,17.50
2018-09-08T09:49:42.680Z,17.50
2018-09-08T09:52:11.030Z,17.60
2018-09-08T09:54:39.348Z,17.80
2018-09-08T09:57:07.708Z,17.90
2018-09-08T09:59:36.027Z,18.10
2018-09-08T10:03:07.387Z,18.30
2018-09-08T10:05:36.328Z,18.50
2018-09-08T10:08:04.692Z,18.60
2018-09-08T10:10:33.000Z,18.70
2018-09-08T10:13:01.336Z,18.70
2018-09-08T10:15:29.656Z,18.60
2018-09-08T10:17:58.015Z,18.60
2018-09-08T10:20:26.336Z,18.60
2018-09-08T10:22:54.674Z,18.50
2018-09-08T10:25:23.007Z,18.50
2018-09-08T10:27:51.355Z,18.40
2018-09-08T10:30:19.720Z,18.20
2018-09-08T10:32:48.159Z,18.00
2018-09-08T10:35:16.496Z,17.90
2018-09-08T10:37:44.840Z,17.80
2018-09-08T10:40:13.780Z,17.80
2018-09-08T10:42:42.460Z,17.90
2018-09-08T10:45:11.133Z,18.00
2018-09-08T10:47:39.535Z,18.00
2018-09-08T10:50:08.720Z,18.20
2018-09-08T10:52:39.363Z,18.40
2018-09-08T10:55:07.740Z,18.50
2018-09-08T10:57:36.164Z,18.60
2018-09-08T11:00:05.096Z,18.70
2018-09-08T11:02:33.513Z,18.90
2018-09-08T11:05:02.368Z,18.90
2018-09-08T11:07:31.180Z,18.90
2018-09-08T11:09:59.616Z,18.90
2018-09-08T11:12:28.007Z,18.80
2018-09-08T11:14:56.395Z,18.90
2018-09-08T11:17:25.085Z,18.80
2018-09-08T11:19:53.419Z,18.80
2018-09-08T11:22:21.808Z,19.00
2018-09-08T11:24:50.147Z,19.10
2018-09-08T11:27:18.492Z,19.20
2018-09-08T11:29:46.809Z,19.20
2018-09-08T11:32:15.163Z,19.20
2018-09-08T11:34:43.495Z,19.20
2018-09-08T11:37:11.808Z,19.20
2018-09-08T11:39:40.148Z,19.30
2018-09-08T11:42:08.467Z,19.30
2018-09-08T11:44:36.805Z,19.40
2018-09-08T11:47:05.166Z,19.50
2018-09-08T11:49:33.575Z,19.70
2018-09-08T11:52:01.856Z,19.80
2018-09-08T11:54:30.314Z,19.90
2018-09-08T11:56:58.644Z,19.90
2018-09-08T11:59:27.124Z,19.90
2018-09-08T12:01:55.420Z,20.00
2018-09-08T12:04:23.768Z,20.00
2018-09-08T12:06:52.095Z,20.00
2018-09-08T12:09:20.457Z,19.90
2018-09-08T12:11:48.796Z,19.80
2018-09-08T12:14:17.149Z,19.70
2018-09-08T12:16:45.491Z,19.70
2018-09-08T12:19:13.943Z,19.70
2018-09-08T12:21:42.196Z,19.80
2018-09-08T12:24:10.547Z,19.80
2018-09-08T12:26:38.879Z,19.90
2018-09-08T12:29:07.232Z,19.80
2018-09-08T12:31:35.584Z,19.80
2018-09-08T12:34:04.044Z,20.00
2018-09-08T12:36:32.373Z,20.00
2018-09-08T12:39:00.854Z,20.10
2018-09-08T12:41:29.139Z,20.20
2018-09-08T12:43:57.486Z,20.30
2018-09-08T12:46:25.841Z,20.50
2018-09-08T12:48:54.259Z,20.50
2018-09-08T12:51:22.600Z,20.60
2018-09-08T12:53:50.963Z,20.70
2018-09-08T12:56:19.304Z,20.70
2018-09-08T12:58:47.655Z,20.70
2018-09-08T13:01:15.973Z,20.70
2018-09-08T13:03:44.337Z,20.70
2018-09-08T13:06:12.769Z,20.60
2018-09-08T13:08:41.131Z,20.50
2018-09-08T13:13:34.932Z,20.40
2018-09-08T13:16:03.268Z,20.50
2018-09-08T13:18:31.653Z,20.50
2018-09-08T13:21:00.010Z,20.60
2018-09-08T13:23:28.320Z,20.60
2018-09-08T13:25:56.681Z,20.60
2018-09-08T13:28:25.007Z,20.50
2018-09-08T13:30:53.399Z,20.60
2018-09-08T13:33:21.749Z,20.60
2018-09-08T13:35:50.138Z,20.70
2018-09-08T13:38:18.480Z,20.80
2018-09-08T13:40:46.958Z,20.90
2018-09-08T13:43:15.293Z,21.00
2018-09-08T13:45:43.656Z,21.00
2018-09-08T13:48:12.056Z,21.00
2018-09-08T13:50:40.447Z,21.00
2018-09-08T13:53:08.796Z,21.00
2018-09-08T13:55:37.160Z,20.90
2018-09-08T13:58:06.016Z,20.90
2018-09-08T14:00:34.344Z,21.00
2018-09-08T14:03:02.668Z,21.00
2018-09-08T14:05:31.004Z,21.00
2018-09-08T14:08:02.284Z,20.90
2018-09-08T14:10:30.653Z,20.90
2018-09-08T14:12:59.128Z,20.90
2018-09-08T14:15:27.549Z,20.90
2018-09-08T14:17:55.815Z,21.00
2018-09-08T14:20:24.152Z,21.00
2018-09-08T14:22:52.473Z,21.00
2018-09-08T14:25:20.808Z,21.10
2018-09-08T14:27:49.132Z,21.20
2018-09-08T14:30:17.465Z,21.20
2018-09-08T14:32:45.812Z,21.30
2018-09-08T14:35:14.152Z,21.30
2018-09-08T14:37:42.508Z,21.30
2018-09-08T14:40:10.847Z,21.30
2018-09-08T14:42:39.167Z,21.30
2018-09-08T14:45:07.519Z,21.20
2018-09-08T14:47:35.957Z,21.20
2018-09-08T14:50:04.262Z,21.10
2018-09-08T14:52:32.597Z,21.10
2018-09-08T14:55:00.936Z,21.00
2018-09-08T14:57:29.276Z,21.00
2018-09-08T14:59:57.644Z,21.00
2018-09-08T15:02:25.971Z,21.00
2018-09-08T15:04:54.386Z,21.00
2018-09-08T15:07:22.684Z,21.00
2018-09-08T15:09:51.046Z,21.00
2018-09-08T15:12:19.396Z,21.00
2018-09-08T15:14:47.736Z,21.00
2018-09-08T15:17:16.116Z,21.10
2018-09-08T15:19:44.453Z,21.10
2018-09-08T15:22:12.814Z,21.10
2018-09-08T15:24:41.191Z,21.10
2018-09-08T15:27:09.571Z,21.10
2018-09-08T15:29:37.904Z,21.10
2018-09-08T15:32:06.276Z,21.20
2018-09-08T15:34:34.635Z,21.20
2018-09-08T15:37:03.003Z,21.20
2018-09-08T15:39:31.360Z,21.10
2018-09-08T15:41:59.742Z,21.10
2018-09-08T15:44:28.103Z,21.10
2018-09-08T15:46:56.457Z,21.10
2018-09-08T15:49:24.781Z,21.10
2018-09-08T15:51:53.136Z,21.00
2018-09-08T15:54:21.480Z,21.00
2018-09-08T15:56:49.831Z,21.00
2018-09-08T15:59:18.224Z,20.90
2018-09-08T16:01:46.561Z,20.90
2018-09-08T16:04:14.885Z,20.90
2018-09-08T16:06:43.492Z,20.90
2018-09-08T16:09:11.844Z,20.80
2018-09-08T16:11:40.188Z,20.80
2018-09-08T16:14:08.513Z,20.80
2018-09-08T16:16:36.839Z,20.70
2018-09-08T16:19:05.197Z,20.70
2018-09-08T16:21:33.542Z,20.70
2018-09-08T16:24:01.861Z,20.70
2018-09-08T16:26:30.216Z,20.70
2018-09-08T16:28:58.559Z,20.70
2018-09-08T16:31:26.918Z,20.70
2018-09-08T16:33:55.236Z,20.80
2018-09-08T16:36:23.588Z,20.70
2018-09-08T16:38:51.944Z,20.70
2018-09-08T16:41:20.256Z,20.70
2018-09-08T16:43:48.592Z,20.60
2018-09-08T16:46:16.929Z,20.50
2018-09-08T16:48:45.252Z,20.40
2018-09-08T16:51:13.589Z,20.40
2018-09-08T16:53:41.900Z,20.30
2018-09-08T16:56:10.256Z,20.20
2018-09-08T16:58:38.584Z,20.10
2018-09-08T17:01:07.085Z,20.00
2018-09-08T17:03:35.491Z,20.00
2018-09-08T17:06:03.832Z,19.90
2018-09-08T17:08:32.172Z,19.80
2018-09-08T17:11:00.500Z,19.80
2018-09-08T17:13:28.851Z,19.70
2018-09-08T17:15:57.170Z,19.70
2018-09-08T17:18:25.535Z,19.60
2018-09-08T17:20:53.852Z,19.50
2018-09-08T17:23:22.207Z,19.50
2018-09-08T17:25:50.540Z,19.40
2018-09-08T17:28:18.972Z,19.40
2018-09-08T17:30:47.281Z,19.30
2018-09-08T17:33:15.640Z,19.20
2018-09-08T17:35:43.960Z,19.10
2018-09-08T17:38:12.304Z,19.10
2018-09-08T17:40:40.628Z,19.00
2018-09-08T17:43:08.981Z,18.90
2018-09-08T17:45:37.324Z,18.80
2018-09-08T17:48:05.736Z,18.70
2018-09-08T17:50:34.062Z,18.70
2018-09-08T17:53:02.505Z,18.60
2018-09-08T17:55:30.827Z,18.50
2018-09-08T17:57:59.264Z,18.50
2018-09-08T18:00:27.608Z,18.40
2018-09-08T18:02:55.951Z,18.30
2018-09-08T18:05:24.271Z,18.30
2018-09-08T18:07:52.612Z,18.20
2018-09-08T18:10:20.931Z,18.20
2018-09-08T18:12:49.280Z,18.10
2018-09-08T18:15:17.607Z,18.10
2018-09-08T18:17:45.948Z,18.00
2018-09-08T18:20:14.280Z,17.90
2018-09-08T18:22:42.631Z,17.80
2018-09-08T18:25:10.959Z,17.70
2018-09-08T18:27:39.296Z,17.60
2018-09-08T18:30:07.646Z,17.60
2018-09-08T18:32:36.052Z,17.50
2018-09-08T18:35:04.396Z,17.40
2018-09-08T18:37:32.740Z,17.30
2018-09-08T18:40:01.076Z,17.20
2018-09-08T18:42:29.409Z,17.10
2018-09-08T18:44:57.764Z,17.10
2018-09-08T18:47:26.080Z,17.00
2018-09-08T18:49:54.416Z,17.00
2018-09-08T18:52:22.846Z,17.00
2018-09-08T18:54:51.185Z,16.90
2018-09-08T18:57:19.508Z,16.80
2018-09-08T18:59:47.873Z,16.80
2018-09-08T19:02:16.195Z,16.80
2018-09-08T19:04:44.540Z,16.70
2018-09-08T19:07:12.864Z,16.60
2018-09-08T19:09:41.208Z,16.60
2018-09-08T19:12:09.549Z,16.50
2018-09-08T19:14:43.217Z,16.40
2018-09-08T19:17:11.537Z,16.30
2018-09-08T19:19:39.871Z,16.30
2018-09-08T19:22:08.193Z,16.20
2018-09-08T19:24:41.856Z,16.10
2018-09-08T19:27:10.180Z,16.10
2018-09-08T19:29:43.937Z,15.90
2018-09-08T19:32:12.285Z,15.90
2018-09-08T19:34:40.633Z,15.80
2018-09-08T19:37:08.957Z,15.70
2018-09-08T19:39:37.625Z,15.70
2018-09-08T19:42:05.957Z,15.60
2018-09-08T19:44:34.320Z,15.60
2018-09-08T19:47:08.084Z,15.50
2018-09-08T19:49:36.440Z,15.40
2018-09-08T19:52:08.540Z,15.30
2018-09-08T19:54:36.912Z,15.30
2018-09-08T19:57:10.602Z,15.20
2018-09-08T19:59:38.960Z,15.20
2018-09-08T20:02:07.333Z,15.20
2018-09-08T20:04:35.655Z,15.10
2018-09-08T20:07:04.001Z,15.10
2018-09-08T20:09:32.405Z,15.10
2018-09-08T20:12:00.711Z,15.00
2018-09-08T20:14:29.065Z,15.00
2018-09-08T20:16:57.467Z,14.90
2018-09-08T20:19:25.906Z,14.90
2018-09-08T20:21:54.205Z,14.90
2018-09-08T20:24:22.548Z,14.80
2018-09-08T20:26:51.005Z,14.80
2018-09-08T20:29:19.243Z,14.70
2018-09-08T20:31:47.588Z,14.70
2018-09-08T20:34:15.954Z,14.70
2018-09-08T20:36:44.280Z,14.60
2018-09-08T20:39:14.405Z,14.50
2018-09-08T20:41:42.749Z,14.50
2018-09-08T20:44:11.105Z,14.40
2018-09-08T20:46:42.942Z,14.30
2018-09-08T20:49:11.476Z,14.20
2018-09-08T20:51:39.820Z,14.20
2018-09-08T20:54:08.183Z,14.10
2018-09-08T20:56:36.615Z,14.00
2018-09-08T20:59:04.986Z,14.00
2018-09-08T21:01:33.336Z,13.90
2018-09-08T21:04:01.664Z,13.90
2018-09-08T21:06:30.062Z,13.90
2018-09-08T21:08:58.396Z,13.80
2018-09-08T21:11:26.744Z,13.80
2018-09-08T21:13:55.091Z,13.70
2018-09-08T21:16:23.448Z,13.70
2018-09-08T21:18:51.795Z,13.60
2018-09-08T21:21:20.149Z,13.60
2018-09-08T21:23:48.492Z,13.50
2018-09-08T21:26:16.848Z,13.50
2018-09-08T21:28:45.312Z,13.40
2018-09-08T21:31:13.658Z,13.30
2018-09-08T21:33:41.983Z,13.30
2018-09-08T21:36:10.328Z,13.20
2018-09-08T21:38:38.661Z,13.20
2018-09-08T21:41:07.066Z,13.10
2018-09-08T21:43:35.399Z,13.10
2018-09-08T21:46:03.784Z,13.00
2018-09-08T21:48:32.117Z,13.00
2018-09-08T21:51:00.460Z,13.00
2018-09-08T21:53:28.789Z,13.00
2018-09-08T21:55:57.121Z,12.90
2018-09-08T21:58:25.734Z,12.80
2018-09-08T22:00:57.411Z,12.70
2018-09-08T22:03:27.360Z,12.60
2018-09-08T22:05:55.714Z,12.60
2018-09-08T22:08:24.042Z,12.50
2018-09-08T22:10:52.385Z,12.50
2018-09-08T22:13:20.720Z,12.40
2018-09-08T22:15:49.088Z,12.40
2018-09-08T22:18:17.422Z,12.30
2018-09-08T22:20:45.762Z,12.30
2018-09-08T22:23:14.100Z,12.20
2018-09-08T22:25:42.443Z,12.10
2018-09-08T22:28:10.806Z,12.10
2018-09-08T22:30:39.146Z,12.10
2018-09-08T22:33:07.485Z,12.00
2018-09-08T22:35:35.815Z,11.90
2018-09-08T22:38:04.160Z,11.80
2018-09-08T22:40:32.480Z,11.80
2018-09-08T22:43:00.895Z,11.70
2018-09-08T22:45:29.204Z,11.70
2018-09-08T22:47:57.908Z,11.70
2018-09-08T22:50:26.243Z,11.70
2018-09-08T22:52:54.604Z,11.60
2018-09-08T22:55:22.949Z,11.50
2018-09-08T22:57:51.305Z,11.50
2018-09-08T23:00:19.648Z,11.50
2018-09-08T23:02:48.030Z,11.50
2018-09-08T23:05:16.372Z,11.50
2018-09-08T23:07:44.727Z,11.50
2018-09-08T23:10:13.049Z,11.50
2018-09-08T23:12:41.399Z,11.50
2018-09-08T23:15:09.760Z,11.40
2018-09-08T23:17:38.132Z,11.40
2018-09-08T23:20:06.480Z,11.30
2018-09-08T23:22:34.821Z,11.30
2018-09-08T23:25:03.148Z,11.30
2018-09-08T23:27:31.505Z,11.20
2018-09-08T23:29:59.860Z,11.20
2018-09-08T23:32:28.220Z,11.20
2018-09-08T23:34:56.565Z,11.10
2018-09-08T23:37:24.925Z,11.00
2018-09-08T23:39:53.279Z,11.00
2018-09-08T23:42:21.669Z,11.00
2018-09-08T23:44:50.013Z,11.00
2018-09-08T23:47:18.414Z,11.00
2018-09-08T23:49:46.728Z,10.90
2018-09-08T23:52:15.072Z,10.90
2018-09-08T23:54:43.389Z,10.80
2018-09-08T23:57:11.764Z,10.80
2018-09-08T23:59:40.084Z,10.70
